sensor_id;sensor_type;location;lat;lon;timestamp;pressure;altitude;pressure_sealevel;temperature;humidity
63903;BME280;50072;50.678;13.938;2023-04-19T00:01:44;100237.81;;;10.10;90.02
63903;BME280;50072;50.678;13.938;2023-04-19T00:04:16;100237.75;;;10.16;90.11
63903;BME280;50072;50.678;13.938;2023-04-19T00:06:45;100237.84;;;10.07;90.52
63903;BME280;50072;50.678;13.938;2023-04-19T00:09:14;100230.75;;;10.06;90.30
63903;BME280;50072;50.678;13.938;2023-04-19T00:11:47;100225.47;;;10.00;90.73
63903;BME280;50072;50.678;13.938;2023-04-19T00:14:13;100230.88;;;9.97;90.76
63903;BME280;50072;50.678;13.938;2023-04-19T00:16:45;100236.31;;;9.91;91.45
63903;BME280;50072;50.678;13.938;2023-04-19T00:19:15;100227.38;;;9.92;91.53
63903;BME280;50072;50.678;13.938;2023-04-19T00:21:45;100220.28;;;9.91;91.39
63903;BME280;50072;50.678;13.938;2023-04-19T00:24:14;100222.06;;;9.89;91.46
63903;BME280;50072;50.678;13.938;2023-04-19T00:26:47;100214.97;;;9.88;92.15
63903;BME280;50072;50.678;13.938;2023-04-19T00:29:15;100216.81;;;9.82;92.08
63903;BME280;50072;50.678;13.938;2023-04-19T00:31:45;100207.91;;;9.83;91.78
63903;BME280;50072;50.678;13.938;2023-04-19T00:34:15;100197.19;;;9.83;91.86
63903;BME280;50072;50.678;13.938;2023-04-19T00:36:41;100197.22;;;9.82;91.90
63903;BME280;50072;50.678;13.938;2023-04-19T00:39:15;100205.25;;;9.79;91.91
63903;BME280;50072;50.678;13.938;2023-04-19T00:41:44;100207.06;;;9.78;92.60
63903;BME280;50072;50.678;13.938;2023-04-19T00:44:17;100190.19;;;9.73;92.55
63903;BME280;50072;50.678;13.938;2023-04-19T00:46:45;100186.66;;;9.71;92.86
63903;BME280;50072;50.678;13.938;2023-04-19T00:49:15;100196.50;;;9.67;92.92
63903;BME280;50072;50.678;13.938;2023-04-19T00:51:45;100194.78;;;9.63;93.38
63903;BME280;50072;50.678;13.938;2023-04-19T00:54:18;100198.38;;;9.61;93.79
63903;BME280;50072;50.678;13.938;2023-04-19T00:56:45;100193.94;;;9.60;94.01
63903;BME280;50072;50.678;13.938;2023-04-19T00:59:17;100197.53;;;9.56;93.89
63903;BME280;50072;50.678;13.938;2023-04-19T01:01:45;100199.38;;;9.54;94.54
63903;BME280;50072;50.678;13.938;2023-04-19T01:04:15;100195.81;;;9.52;94.29
63903;BME280;50072;50.678;13.938;2023-04-19T01:06:44;100187.88;;;9.47;95.21
63903;BME280;50072;50.678;13.938;2023-04-19T01:09:16;100193.22;;;9.45;96.97
63903;BME280;50072;50.678;13.938;2023-04-19T01:11:44;100186.16;;;9.41;97.84
63903;BME280;50072;50.678;13.938;2023-04-19T01:14:11;100183.47;;;9.41;98.66
63903;BME280;50072;50.678;13.938;2023-04-19T01:16:39;100182.59;;;9.41;98.51
63903;BME280;50072;50.678;13.938;2023-04-19T01:19:09;100178.22;;;9.35;98.39
63903;BME280;50072;50.678;13.938;2023-04-19T01:21:45;100178.25;;;9.33;98.73
63903;BME280;50072;50.678;13.938;2023-04-19T01:24:18;100183.63;;;9.27;98.31
63903;BME280;50072;50.678;13.938;2023-04-19T01:26:45;100181.88;;;9.28;98.50
63903;BME280;50072;50.678;13.938;2023-04-19T01:29:16;100178.25;;;9.32;98.49
63903;BME280;50072;50.678;13.938;2023-04-19T01:37:16;100165.00;;;9.21;98.26
63903;BME280;50072;50.678;13.938;2023-04-19T01:39:45;100165.94;;;9.19;98.55
63903;BME280;50072;50.678;13.938;2023-04-19T01:42:16;100157.91;;;9.19;98.51
63903;BME280;50072;50.678;13.938;2023-04-19T01:44:45;100149.00;;;9.21;97.90
63903;BME280;50072;50.678;13.938;2023-04-19T01:47:15;100148.13;;;9.18;97.73
63903;BME280;50072;50.678;13.938;2023-04-19T01:49:43;100157.06;;;9.13;98.12
63903;BME280;50072;50.678;13.938;2023-04-19T01:52:15;100155.31;;;9.12;98.22
63903;BME280;50072;50.678;13.938;2023-04-19T01:54:46;100155.31;;;9.12;98.27
63903;BME280;50072;50.678;13.938;2023-04-19T01:57:14;100151.72;;;9.13;97.87
63903;BME280;50072;50.678;13.938;2023-04-19T01:59:46;100156.16;;;9.16;97.56
63903;BME280;50072;50.678;13.938;2023-04-19T02:02:14;100154.41;;;9.17;96.65
63903;BME280;50072;50.678;13.938;2023-04-19T02:04:44;100147.28;;;9.15;97.28
63903;BME280;50072;50.678;13.938;2023-04-19T02:07:16;100150.81;;;9.16;96.36
63903;BME280;50072;50.678;13.938;2023-04-19T02:09:45;100152.63;;;9.14;96.86
63903;BME280;50072;50.678;13.938;2023-04-19T02:12:17;100158.03;;;9.06;96.60
63903;BME280;50072;50.678;13.938;2023-04-19T02:14:44;100158.06;;;9.08;96.66
63903;BME280;50072;50.678;13.938;2023-04-19T02:17:10;100158.94;;;9.08;96.95
63903;BME280;50072;50.678;13.938;2023-04-19T02:19:45;100158.94;;;9.08;96.30
63903;BME280;50072;50.678;13.938;2023-04-19T02:22:14;100163.38;;;9.06;96.80
63903;BME280;50072;50.678;13.938;2023-04-19T02:24:46;100159.75;;;9.12;96.04
63903;BME280;50072;50.678;13.938;2023-04-19T02:27:15;100155.31;;;9.14;95.16
63903;BME280;50072;50.678;13.938;2023-04-19T02:29:45;100155.31;;;9.12;95.37
63903;BME280;50072;50.678;13.938;2023-04-19T02:32:14;100156.19;;;9.14;95.12
63903;BME280;50072;50.678;13.938;2023-04-19T02:34:45;100155.28;;;9.15;95.12
63903;BME280;50072;50.678;13.938;2023-04-19T02:37:15;100155.28;;;9.15;94.90
63903;BME280;50072;50.678;13.938;2023-04-19T02:39:48;100147.28;;;9.15;95.61
63903;BME280;50072;50.678;13.938;2023-04-19T02:42:15;100155.28;;;9.15;94.72
63903;BME280;50072;50.678;13.938;2023-04-19T02:44:47;100148.22;;;9.11;94.62
63903;BME280;50072;50.678;13.938;2023-04-19T02:47:15;100143.75;;;9.12;93.94
63903;BME280;50072;50.678;13.938;2023-04-19T02:49:46;100142.91;;;9.08;94.79
63903;BME280;50072;50.678;13.938;2023-04-19T02:52:15;100141.16;;;9.04;94.98
63903;BME280;50072;50.678;13.938;2023-04-19T02:54:45;100142.09;;;9.02;94.58
63903;BME280;50072;50.678;13.938;2023-04-19T02:57:15;100141.16;;;9.06;94.50
63903;BME280;50072;50.678;13.938;2023-04-19T02:59:44;100146.47;;;9.07;94.13
63903;BME280;50072;50.678;13.938;2023-04-19T03:02:15;100146.44;;;9.10;94.80
63903;BME280;50072;50.678;13.938;2023-04-19T03:04:45;100150.03;;;9.09;94.04
63903;BME280;50072;50.678;13.938;2023-04-19T03:07:14;100143.78;;;9.09;93.53
63903;BME280;50072;50.678;13.938;2023-04-19T03:09:42;100134.94;;;9.05;93.37
63903;BME280;50072;50.678;13.938;2023-04-19T03:12:14;100139.34;;;9.09;93.25
63903;BME280;50072;50.678;13.938;2023-04-19T03:14:47;100134.81;;;9.14;93.01
63903;BME280;50072;50.678;13.938;2023-04-19T03:17:15;100135.84;;;9.04;92.06
63903;BME280;50072;50.678;13.938;2023-04-19T03:19:46;100118.91;;;9.05;92.36
63903;BME280;50072;50.678;13.938;2023-04-19T03:22:12;100120.72;;;9.02;93.15
63903;BME280;50072;50.678;13.938;2023-04-19T03:24:45;100126.03;;;9.03;92.58
63903;BME280;50072;50.678;13.938;2023-04-19T03:27:10;100111.16;;;8.80;91.69
63903;BME280;50072;50.678;13.938;2023-04-19T03:29:45;100110.31;;;8.78;92.40
63903;BME280;50072;50.678;13.938;2023-04-19T03:32:17;100097.03;;;8.74;92.60
63903;BME280;50072;50.678;13.938;2023-04-19T03:34:44;100107.66;;;8.77;94.03
63903;BME280;50072;50.678;13.938;2023-04-19T03:37:09;100098.75;;;8.79;93.50
63903;BME280;50072;50.678;13.938;2023-04-19T03:39:44;100099.56;;;8.83;93.07
63903;BME280;50072;50.678;13.938;2023-04-19T03:42:12;100090.75;;;8.79;93.59
63903;BME280;50072;50.678;13.938;2023-04-19T03:44:45;100096.00;;;8.84;93.20
63903;BME280;50072;50.678;13.938;2023-04-19T03:47:17;100085.41;;;8.79;91.85
63903;BME280;50072;50.678;13.938;2023-04-19T03:49:45;100086.25;;;8.81;91.68
63903;BME280;50072;50.678;13.938;2023-04-19T03:52:15;100084.47;;;8.80;91.83
63903;BME280;50072;50.678;13.938;2023-04-19T03:54:45;100068.53;;;8.74;92.40
63903;BME280;50072;50.678;13.938;2023-04-19T03:57:15;100064.97;;;8.75;91.56
63903;BME280;50072;50.678;13.938;2023-04-19T03:59:47;100071.28;;;8.68;92.06
63903;BME280;50072;50.678;13.938;2023-04-19T04:02:13;100060.66;;;8.62;92.09
63903;BME280;50072;50.678;13.938;2023-04-19T04:04:39;100066.13;;;8.51;92.82
63903;BME280;50072;50.678;13.938;2023-04-19T04:07:05;100059.94;;;8.48;92.34
63903;BME280;50072;50.678;13.938;2023-04-19T04:09:30;100063.47;;;8.51;92.72
63903;BME280;50072;50.678;13.938;2023-04-19T04:11:56;100068.88;;;8.37;92.88
63903;BME280;50072;50.678;13.938;2023-04-19T04:14:22;100057.31;;;8.40;93.05
63903;BME280;50072;50.678;13.938;2023-04-19T04:16:48;100062.66;;;8.40;92.73
63903;BME280;50072;50.678;13.938;2023-04-19T04:19:15;100056.44;;;8.36;92.71
63903;BME280;50072;50.678;13.938;2023-04-19T04:21:41;100053.81;;;8.33;93.13
63903;BME280;50072;50.678;13.938;2023-04-19T04:24:06;100048.56;;;8.25;93.45
63903;BME280;50072;50.678;13.938;2023-04-19T04:26:32;100055.66;;;8.25;93.25
63903;BME280;50072;50.678;13.938;2023-04-19T04:28:59;100060.09;;;8.26;93.40
63903;BME280;50072;50.678;13.938;2023-04-19T04:31:27;100056.59;;;8.22;93.25
63903;BME280;50072;50.678;13.938;2023-04-19T04:33:52;100050.44;;;8.14;94.11
63903;BME280;50072;50.678;13.938;2023-04-19T04:36:20;100060.28;;;8.07;94.32
63903;BME280;50072;50.678;13.938;2023-04-19T04:38:46;100045.19;;;8.03;95.12
63903;BME280;50072;50.678;13.938;2023-04-19T04:41:12;100042.50;;;8.05;94.60
63903;BME280;50072;50.678;13.938;2023-04-19T04:43:38;100033.69;;;8.00;94.94
63903;BME280;50072;50.678;13.938;2023-04-19T04:46:04;100039.94;;;7.95;95.30
63903;BME280;50072;50.678;13.938;2023-04-19T04:48:30;100032.88;;;7.91;95.49
63903;BME280;50072;50.678;13.938;2023-04-19T04:50:57;100044.44;;;7.89;95.40
63903;BME280;50072;50.678;13.938;2023-04-19T04:53:26;100033.84;;;7.76;95.79
63903;BME280;50072;50.678;13.938;2023-04-19T04:55:53;100037.44;;;7.72;96.17
63903;BME280;50072;50.678;13.938;2023-04-19T04:58:18;100041.03;;;7.65;96.60
63903;BME280;50072;50.678;13.938;2023-04-19T05:00:45;100041.06;;;7.62;97.29
63903;BME280;50072;50.678;13.938;2023-04-19T05:03:11;100042.88;;;7.60;97.35
63903;BME280;50072;50.678;13.938;2023-04-19T05:05:37;100034.88;;;7.63;96.86
63903;BME280;50072;50.678;13.938;2023-04-19T05:08:03;100036.66;;;7.58;96.69
63903;BME280;50072;50.678;13.938;2023-04-19T05:10:29;100048.22;;;7.60;97.08
63903;BME280;50072;50.678;13.938;2023-04-19T05:12:55;100035.69;;;7.71;95.91
63903;BME280;50072;50.678;13.938;2023-04-19T05:15:21;100049.03;;;7.70;95.92
63903;BME280;50072;50.678;13.938;2023-04-19T05:17:48;100050.75;;;7.72;96.97
63903;BME280;50072;50.678;13.938;2023-04-19T05:20:14;100056.03;;;7.82;95.62
63903;BME280;50072;50.678;13.938;2023-04-19T05:22:39;100037.44;;;7.75;94.98
63903;BME280;50072;50.678;13.938;2023-04-19T05:25:06;100029.41;;;7.78;94.66
63903;BME280;50072;50.678;13.938;2023-04-19T05:27:32;100037.41;;;7.78;94.40
63903;BME280;50072;50.678;13.938;2023-04-19T05:29:57;100039.13;;;7.86;93.48
63903;BME280;50072;50.678;13.938;2023-04-19T05:32:23;100032.00;;;7.88;92.46
63903;BME280;50072;50.678;13.938;2023-04-19T05:34:49;100024.00;;;7.88;91.29
63903;BME280;50072;50.678;13.938;2023-04-19T05:37:14;100022.34;;;7.74;91.72
63903;BME280;50072;50.678;13.938;2023-04-19T05:39:41;100026.75;;;7.78;91.07
63903;BME280;50072;50.678;13.938;2023-04-19T05:42:06;100035.78;;;7.59;91.14
63903;BME280;50072;50.678;13.938;2023-04-19T05:44:32;100030.47;;;7.56;91.98
63903;BME280;50072;50.678;13.938;2023-04-19T05:46:58;100023.41;;;7.52;91.95
63903;BME280;50072;50.678;13.938;2023-04-19T05:49:24;100030.53;;;7.47;91.89
63903;BME280;50072;50.678;13.938;2023-04-19T05:51:50;100045.66;;;7.43;91.43
63903;BME280;50072;50.678;13.938;2023-04-19T05:54:16;100062.59;;;7.30;91.31
63903;BME280;50072;50.678;13.938;2023-04-19T05:56:42;100067.06;;;7.21;92.05
63903;BME280;50072;50.678;13.938;2023-04-19T05:59:09;100072.31;;;7.40;90.84
63903;BME280;50072;50.678;13.938;2023-04-19T06:01:36;100069.53;;;7.57;88.52
63903;BME280;50072;50.678;13.938;2023-04-19T06:04:02;100073.94;;;7.63;88.40
63903;BME280;50072;50.678;13.938;2023-04-19T06:06:28;100074.88;;;7.51;86.68
63903;BME280;50072;50.678;13.938;2023-04-19T06:08:53;100080.22;;;7.51;85.70
63903;BME280;50072;50.678;13.938;2023-04-19T06:11:19;100075.81;;;7.45;84.98
63903;BME280;50072;50.678;13.938;2023-04-19T06:13:46;100074.03;;;7.46;82.57
63903;BME280;50072;50.678;13.938;2023-04-19T06:16:15;100069.56;;;7.51;80.59
63903;BME280;50072;50.678;13.938;2023-04-19T06:18:46;100065.97;;;7.61;79.65
63903;BME280;50072;50.678;13.938;2023-04-19T06:21:15;100062.22;;;7.88;78.31
63903;BME280;50072;50.678;13.938;2023-04-19T06:23:45;100058.50;;;8.06;75.69
63903;BME280;50072;50.678;13.938;2023-04-19T06:26:18;100057.47;;;8.24;73.30
63903;BME280;50072;50.678;13.938;2023-04-19T06:28:45;100064.41;;;8.39;73.36
63903;BME280;50072;50.678;13.938;2023-04-19T06:31:10;100063.56;;;8.36;72.29
63903;BME280;50072;50.678;13.938;2023-04-19T06:33:45;100067.22;;;8.27;69.84
63903;BME280;50072;50.678;13.938;2023-04-19T06:36:10;100073.47;;;8.24;69.66
63903;BME280;50072;50.678;13.938;2023-04-19T06:38:37;100076.25;;;8.09;70.04
63903;BME280;50072;50.678;13.938;2023-04-19T06:41:15;100081.66;;;7.97;71.04
63903;BME280;50072;50.678;13.938;2023-04-19T06:43:41;100078.16;;;7.93;70.86
63903;BME280;50072;50.678;13.938;2023-04-19T06:46:08;100075.44;;;8.04;71.29
63903;BME280;50072;50.678;13.938;2023-04-19T06:48:40;100062.06;;;8.08;68.69
63903;BME280;50072;50.678;13.938;2023-04-19T06:51:15;100067.22;;;8.27;68.63
63903;BME280;50072;50.678;13.938;2023-04-19T06:53:45;100053.75;;;8.39;67.80
63903;BME280;50072;50.678;13.938;2023-04-19T06:56:12;100062.56;;;8.54;65.48
63903;BME280;50072;50.678;13.938;2023-04-19T06:58:45;100059.94;;;8.48;60.75
63903;BME280;50072;50.678;13.938;2023-04-19T07:01:16;100047.56;;;8.37;60.15
63903;BME280;50072;50.678;13.938;2023-04-19T07:03:44;100052.91;;;8.36;58.88
63903;BME280;50072;50.678;13.938;2023-04-19T07:06:12;100057.44;;;8.27;58.92
63903;BME280;50072;50.678;13.938;2023-04-19T07:08:45;100047.69;;;8.22;58.67
63903;BME280;50072;50.678;13.938;2023-04-19T07:11:15;100054.66;;;8.38;57.81
63903;BME280;50072;50.678;13.938;2023-04-19T07:13:45;100043.97;;;8.44;56.41
63903;BME280;50072;50.678;13.938;2023-04-19T07:16:17;100041.16;;;8.58;56.61
63903;BME280;50072;50.678;13.938;2023-04-19T07:18:43;100044.50;;;8.76;56.88
63903;BME280;50072;50.678;13.938;2023-04-19T07:21:10;100051.50;;;8.86;55.13
63903;BME280;50072;50.678;13.938;2023-04-19T07:23:37;100058.41;;;9.04;54.03
63903;BME280;50072;50.678;13.938;2023-04-19T07:26:15;100060.03;;;9.14;54.03
63903;BME280;50072;50.678;13.938;2023-04-19T07:28:45;100053.72;;;9.22;55.16
63903;BME280;50072;50.678;13.938;2023-04-19T07:31:16;100056.59;;;9.08;56.41
63903;BME280;50072;50.678;13.938;2023-04-19T07:33:45;100060.13;;;9.10;56.97
63903;BME280;50072;50.678;13.938;2023-04-19T07:36:11;100043.09;;;9.19;57.02
63903;BME280;50072;50.678;13.938;2023-04-19T07:38:42;100042.38;;;9.04;55.57
63903;BME280;50072;50.678;13.938;2023-04-19T07:41:15;100044.25;;;8.96;54.58
63903;BME280;50072;50.678;13.938;2023-04-19T07:43:43;100040.78;;;8.91;53.63
63903;BME280;50072;50.678;13.938;2023-04-19T07:46:15;100039.72;;;9.04;55.66
63903;BME280;50072;50.678;13.938;2023-04-19T07:48:41;100040.38;;;9.20;55.31
63903;BME280;50072;50.678;13.938;2023-04-19T07:51:13;100035.22;;;9.08;53.23
63903;BME280;50072;50.678;13.938;2023-04-19T07:53:45;100034.06;;;9.27;54.87
63903;BME280;50072;50.678;13.938;2023-04-19T07:56:15;100024.31;;;9.26;51.78
63903;BME280;50072;50.678;13.938;2023-04-19T07:58:42;100016.09;;;9.39;51.42
63903;BME280;50072;50.678;13.938;2023-04-19T08:01:08;100007.91;;;9.51;52.14
63903;BME280;50072;50.678;13.938;2023-04-19T08:03:38;100003.13;;;9.72;51.66
63903;BME280;50072;50.678;13.938;2023-04-19T08:06:05;99997.44;;;9.92;49.53
63903;BME280;50072;50.678;13.938;2023-04-19T08:08:35;99996.06;;;10.21;49.78
63903;BME280;50072;50.678;13.938;2023-04-19T08:11:04;99994.97;;;10.31;48.14
63903;BME280;50072;50.678;13.938;2023-04-19T08:13:32;99995.50;;;10.51;50.63
63903;BME280;50072;50.678;13.938;2023-04-19T08:16:05;99982.81;;;10.61;48.07
63903;BME280;50072;50.678;13.938;2023-04-19T08:18:34;99992.31;;;10.78;48.30
63903;BME280;50072;50.678;13.938;2023-04-19T08:21:06;99995.41;;;11.00;47.17
63903;BME280;50072;50.678;13.938;2023-04-19T08:23:43;99993.38;;;11.11;46.46
63903;BME280;50072;50.678;13.938;2023-04-19T08:26:15;99993.09;;;11.23;46.41
63903;BME280;50072;50.678;13.938;2023-04-19T08:28:45;99996.38;;;11.36;45.78
63903;BME280;50072;50.678;13.938;2023-04-19T08:31:16;99991.09;;;11.71;49.13
63903;BME280;50072;50.678;13.938;2023-04-19T08:33:47;99988.19;;;11.80;48.71
63903;BME280;50072;50.678;13.938;2023-04-19T08:36:13;99987.69;;;12.02;47.62
63903;BME280;50072;50.678;13.938;2023-04-19T08:38:45;99992.38;;;12.26;46.15
63903;BME280;50072;50.678;13.938;2023-04-19T08:41:17;99979.47;;;12.41;43.60
63903;BME280;50072;50.678;13.938;2023-04-19T08:43:46;99983.78;;;12.47;44.43
63903;BME280;50072;50.678;13.938;2023-04-19T08:46:14;99981.50;;;12.66;45.07
63903;BME280;50072;50.678;13.938;2023-04-19T08:48:46;99979.31;;;12.78;42.91
63903;BME280;50072;50.678;13.938;2023-04-19T08:51:16;99971.16;;;12.82;42.91
63903;BME280;50072;50.678;13.938;2023-04-19T08:53:43;99979.75;;;12.94;43.95
63903;BME280;50072;50.678;13.938;2023-04-19T08:56:11;99976.34;;;13.18;43.38
63903;BME280;50072;50.678;13.938;2023-04-19T08:58:38;99977.78;;;13.29;43.20
63903;BME280;50072;50.678;13.938;2023-04-19T09:01:07;99964.19;;;13.36;42.23
63903;BME280;50072;50.678;13.938;2023-04-19T09:03:45;99955.59;;;13.53;43.80
63903;BME280;50072;50.678;13.938;2023-04-19T09:06:13;99965.41;;;13.80;44.39
63903;BME280;50072;50.678;13.938;2023-04-19T09:08:44;99965.13;;;14.15;43.92
63903;BME280;50072;50.678;13.938;2023-04-19T09:11:15;99950.63;;;14.44;42.14
63903;BME280;50072;50.678;13.938;2023-04-19T09:13:43;99949.97;;;14.12;43.27
63903;BME280;50072;50.678;13.938;2023-04-19T09:16:23;99937.00;;;14.49;41.81
63903;BME280;50072;50.678;13.938;2023-04-19T09:18:53;99945.84;;;14.27;40.92
63903;BME280;50072;50.678;13.938;2023-04-19T09:21:27;99939.31;;;14.35;42.06
63903;BME280;50072;50.678;13.938;2023-04-19T09:23:54;99947.44;;;14.58;42.53
63903;BME280;50072;50.678;13.938;2023-04-19T09:26:20;99938.31;;;14.86;40.08
63903;BME280;50072;50.678;13.938;2023-04-19T09:29:05;99944.78;;;15.06;39.99
63903;BME280;50072;50.678;13.938;2023-04-19T09:31:34;99949.50;;;15.45;39.48
63903;BME280;50072;50.678;13.938;2023-04-19T09:36:39;99949.88;;;15.35;37.75
63903;BME280;50072;50.678;13.938;2023-04-19T09:39:06;99939.09;;;15.58;38.05
63903;BME280;50072;50.678;13.938;2023-04-19T09:41:32;99938.25;;;16.00;39.77
63903;BME280;50072;50.678;13.938;2023-04-19T09:44:11;99945.22;;;16.05;39.33
63903;BME280;50072;50.678;13.938;2023-04-19T09:46:40;99951.53;;;15.16;39.38
63903;BME280;50072;50.678;13.938;2023-04-19T09:51:44;99951.81;;;14.62;39.85
63903;BME280;50072;50.678;13.938;2023-04-19T09:54:12;99952.34;;;14.47;41.43
63903;BME280;50072;50.678;13.938;2023-04-19T09:56:38;99960.13;;;14.55;40.61
63903;BME280;50072;50.678;13.938;2023-04-19T09:59:05;99958.09;;;14.36;40.40
63903;BME280;50072;50.678;13.938;2023-04-19T10:01:38;99950.13;;;14.33;42.16
63903;BME280;50072;50.678;13.938;2023-04-19T10:04:05;99950.63;;;15.17;40.78
63903;BME280;50072;50.678;13.938;2023-04-19T10:06:31;99957.91;;;15.15;41.34
63903;BME280;50072;50.678;13.938;2023-04-19T10:09:02;99951.41;;;15.19;39.70
63903;BME280;50072;50.678;13.938;2023-04-19T10:11:31;99947.06;;;14.93;40.48
63903;BME280;50072;50.678;13.938;2023-04-19T10:14:06;99936.28;;;15.83;40.14
63903;BME280;50072;50.678;13.938;2023-04-19T10:16:33;99949.31;;;16.55;38.29
63903;BME280;50072;50.678;13.938;2023-04-19T10:19:02;99938.56;;;17.51;37.88
63903;BME280;50072;50.678;13.938;2023-04-19T10:21:28;99937.94;;;18.68;37.11
63903;BME280;50072;50.678;13.938;2023-04-19T10:23:56;99936.81;;;18.39;35.30
63903;BME280;50072;50.678;13.938;2023-04-19T10:26:22;99925.88;;;17.15;35.19
63903;BME280;50072;50.678;13.938;2023-04-19T10:28:49;99935.06;;;16.52;37.42
63903;BME280;50072;50.678;13.938;2023-04-19T10:31:18;99933.13;;;16.35;37.04
63903;BME280;50072;50.678;13.938;2023-04-19T10:33:47;99938.44;;;15.73;37.71
63903;BME280;50072;50.678;13.938;2023-04-19T10:36:13;99930.44;;;15.27;38.85
63903;BME280;50072;50.678;13.938;2023-04-19T10:38:43;99930.50;;;15.48;37.96
63903;BME280;50072;50.678;13.938;2023-04-19T10:41:11;99932.56;;;15.41;38.37
63903;BME280;50072;50.678;13.938;2023-04-19T10:44:07;99928.44;;;15.32;38.86
63903;BME280;50072;50.678;13.938;2023-04-19T10:49:04;99920.38;;;15.75;38.46
63903;BME280;50072;50.678;13.938;2023-04-19T10:51:38;99932.53;;;15.21;39.54
63903;BME280;50072;50.678;13.938;2023-04-19T10:54:28;99920.50;;;15.06;40.34
63903;BME280;50072;50.678;13.938;2023-04-19T10:59:31;99920.75;;;14.02;41.34
63903;BME280;50072;50.678;13.938;2023-04-19T11:02:27;99924.81;;;13.88;42.63
63903;BME280;50072;50.678;13.938;2023-04-19T11:05:03;99930.59;;;14.03;43.08
63903;BME280;50072;50.678;13.938;2023-04-19T11:07:39;99918.28;;;13.69;43.27
63903;BME280;50072;50.678;13.938;2023-04-19T11:10:12;99920.00;;;13.44;44.07
63903;BME280;50072;50.678;13.938;2023-04-19T11:12:47;99922.84;;;13.10;44.52
63903;BME280;50072;50.678;13.938;2023-04-19T11:15:12;99924.53;;;12.84;44.54
63903;BME280;50072;50.678;13.938;2023-04-19T11:17:39;99918.59;;;13.03;44.60
63903;BME280;50072;50.678;13.938;2023-04-19T11:20:08;99911.94;;;13.96;43.40
63903;BME280;50072;50.678;13.938;2023-04-19T11:22:45;99901.44;;;14.88;41.40
63903;BME280;50072;50.678;13.938;2023-04-19T11:25:14;99908.00;;;15.27;41.01
63903;BME280;50072;50.678;13.938;2023-04-19T11:27:50;99908.88;;;16.73;38.66
63903;BME280;50072;50.678;13.938;2023-04-19T11:30:21;99896.50;;;16.67;38.52
63903;BME280;50072;50.678;13.938;2023-04-19T11:32:56;99897.63;;;20.49;33.09
63903;BME280;50072;50.678;13.938;2023-04-19T11:35:28;99884.94;;;19.74;32.98
63903;BME280;50072;50.678;13.938;2023-04-19T11:37:55;99898.88;;;20.29;32.83
63903;BME280;50072;50.678;13.938;2023-04-19T11:40:40;99900.34;;;18.78;34.06
63903;BME280;50072;50.678;13.938;2023-04-19T11:43:07;99897.09;;;22.23;29.46
63903;BME280;50072;50.678;13.938;2023-04-19T11:45:45;99904.41;;;23.99;27.17
63903;BME280;50072;50.678;13.938;2023-04-19T11:48:13;99906.75;;;24.50;25.46
63903;BME280;50072;50.678;13.938;2023-04-19T11:50:45;99909.69;;;21.99;28.08
63903;BME280;50072;50.678;13.938;2023-04-19T11:53:33;99901.22;;;21.49;29.69
63903;BME280;50072;50.678;13.938;2023-04-19T11:56:07;99905.47;;;20.69;28.94
63903;BME280;50072;50.678;13.938;2023-04-19T11:58:44;99899.63;;;19.08;32.49
63903;BME280;50072;50.678;13.938;2023-04-19T12:01:14;99896.69;;;17.21;35.38
63903;BME280;50072;50.678;13.938;2023-04-19T12:09:12;99898.94;;;14.35;41.25
63903;BME280;50072;50.678;13.938;2023-04-19T12:11:45;99907.94;;;13.83;42.68
63903;BME280;50072;50.678;13.938;2023-04-19T12:14:16;99892.91;;;15.43;39.79
63903;BME280;50072;50.678;13.938;2023-04-19T12:17:11;99886.69;;;17.77;36.38
63903;BME280;50072;50.678;13.938;2023-04-19T12:19:46;99886.84;;;20.91;31.11
63903;BME280;50072;50.678;13.938;2023-04-19T12:22:18;99873.91;;;20.22;32.00
63903;BME280;50072;50.678;13.938;2023-04-19T12:24:45;99882.44;;;18.42;34.98
63903;BME280;50072;50.678;13.938;2023-04-19T12:27:17;99887.06;;;16.78;36.95
63903;BME280;50072;50.678;13.938;2023-04-19T12:29:45;99883.03;;;15.44;40.42
63903;BME280;50072;50.678;13.938;2023-04-19T12:32:14;99884.91;;;15.19;40.33
63903;BME280;50072;50.678;13.938;2023-04-19T12:34:45;99887.78;;;15.59;39.84
63903;BME280;50072;50.678;13.938;2023-04-19T12:37:10;99889.03;;;15.06;40.97
63903;BME280;50072;50.678;13.938;2023-04-19T12:39:45;99887.44;;;13.79;43.68
63903;BME280;50072;50.678;13.938;2023-04-19T12:42:13;99886.84;;;12.87;49.11
63903;BME280;50072;50.678;13.938;2023-04-19T12:44:38;99891.28;;;12.29;51.33
63903;BME280;50072;50.678;13.938;2023-04-19T12:47:07;99884.97;;;11.97;49.87
63903;BME280;50072;50.678;13.938;2023-04-19T12:49:37;99879.34;;;12.39;49.98
63903;BME280;50072;50.678;13.938;2023-04-19T12:52:05;99859.44;;;14.35;45.43
63903;BME280;50072;50.678;13.938;2023-04-19T12:54:31;99865.59;;;13.63;45.41
63903;BME280;50072;50.678;13.938;2023-04-19T12:57:13;99869.03;;;13.67;46.13
63903;BME280;50072;50.678;13.938;2023-04-19T12:59:40;99865.72;;;13.32;47.04
63903;BME280;50072;50.678;13.938;2023-04-19T13:02:15;99867.56;;;13.03;46.08
63903;BME280;50072;50.678;13.938;2023-04-19T13:04:46;99860.25;;;12.78;46.50
63903;BME280;50072;50.678;13.938;2023-04-19T13:07:12;99869.81;;;12.58;46.54
63903;BME280;50072;50.678;13.938;2023-04-19T13:09:45;99873.41;;;12.57;46.83
63903;BME280;50072;50.678;13.938;2023-04-19T13:12:17;99866.22;;;12.28;47.95
63903;BME280;50072;50.678;13.938;2023-04-19T13:14:45;99880.00;;;11.81;48.95
63903;BME280;50072;50.678;13.938;2023-04-19T13:17:14;99877.31;;;11.81;48.82
63903;BME280;50072;50.678;13.938;2023-04-19T13:19:40;99869.38;;;12.11;49.10
63903;BME280;50072;50.678;13.938;2023-04-19T13:22:07;99862.34;;;17.23;39.50
63903;BME280;50072;50.678;13.938;2023-04-19T13:24:34;99855.66;;;16.94;38.68